Terminal Aerodrome Forecast
Issued by NWS

Home | Current Version | Previous Version | Text Only | Print | Product List | Glossary On
Versions: 1 2 3 4 5 6 7 8 9 10 11 12 13 14 15 16 17 18 19 20 21 22 23 24 25 26
000
FTUS42 KGSP 231127
TAFHKY
TAF
KHKY 231127Z 2312/2412 06003KT P6SM SCT020 OVC050
     FM231400 05003KT 5SM -RA OVC019
     FM231700 03006KT 4SM -RA BR OVC007
     FM231900 05008KT 1 1/2SM +SHRA BR OVC006 WS020/12030KT
     FM240000 13009KT 2SM SHRA BR OVC004
     FM240500 22009KT 2SM SHRA BR OVC005
     FM240600 23010KT 5SM -RA BR OVC007=

USA.gov is the U.S. government's official web portal to all federal, state and local government web resources and services.